sensor_id;sensor_type;location;lat;lon;timestamp;temperature;humidity
20726;DHT22;10524;48.132;8.518;2023-11-19T00:00:16;7.30;99.90
20726;DHT22;10524;48.132;8.518;2023-11-19T00:02:42;7.20;99.90
20726;DHT22;10524;48.132;8.518;2023-11-19T00:05:08;7.20;99.90
20726;DHT22;10524;48.132;8.518;2023-11-19T00:07:38;7.10;99.90
20726;DHT22;10524;48.132;8.518;2023-11-19T00:10:14;7.00;99.90
20726;DHT22;10524;48.132;8.518;2023-11-19T00:12:46;7.00;99.90
20726;DHT22;10524;48.132;8.518;2023-11-19T00:15:15;6.90;99.90
20726;DHT22;10524;48.132;8.518;2023-11-19T00:17:43;6.80;99.90
20726;DHT22;10524;48.132;8.518;2023-11-19T00:20:17;6.80;99.90
20726;DHT22;10524;48.132;8.518;2023-11-19T00:22:43;6.80;99.90
20726;DHT22;10524;48.132;8.518;2023-11-19T00:25:09;6.70;99.90
20726;DHT22;10524;48.132;8.518;2023-11-19T00:27:36;6.70;99.90
20726;DHT22;10524;48.132;8.518;2023-11-19T00:30:05;6.70;99.90
20726;DHT22;10524;48.132;8.518;2023-11-19T00:32:32;6.70;99.90
20726;DHT22;10524;48.132;8.518;2023-11-19T00:34:59;6.60;99.90
20726;DHT22;10524;48.132;8.518;2023-11-19T00:37:25;6.60;99.90
20726;DHT22;10524;48.132;8.518;2023-11-19T00:39:51;6.60;99.90
20726;DHT22;10524;48.132;8.518;2023-11-19T00:42:17;6.60;99.90
20726;DHT22;10524;48.132;8.518;2023-11-19T00:44:43;6.60;99.90
20726;DHT22;10524;48.132;8.518;2023-11-19T00:47:09;6.70;99.90
20726;DHT22;10524;48.132;8.518;2023-11-19T00:49:34;6.70;99.90
20726;DHT22;10524;48.132;8.518;2023-11-19T00:52:00;6.80;99.90
20726;DHT22;10524;48.132;8.518;2023-11-19T00:54:27;6.80;99.90
20726;DHT22;10524;48.132;8.518;2023-11-19T00:56:53;6.90;99.90
20726;DHT22;10524;48.132;8.518;2023-11-19T00:59:20;7.00;99.90
20726;DHT22;10524;48.132;8.518;2023-11-19T01:01:46;7.20;99.90
20726;DHT22;10524;48.132;8.518;2023-11-19T01:04:16;7.30;99.90
20726;DHT22;10524;48.132;8.518;2023-11-19T01:06:42;7.30;99.90
20726;DHT22;10524;48.132;8.518;2023-11-19T01:09:08;7.40;99.90
20726;DHT22;10524;48.132;8.518;2023-11-19T01:11:35;7.40;99.90
20726;DHT22;10524;48.132;8.518;2023-11-19T01:14:01;7.40;99.90
20726;DHT22;10524;48.132;8.518;2023-11-19T01:16:27;7.30;99.90
20726;DHT22;10524;48.132;8.518;2023-11-19T01:18:52;7.30;99.90
20726;DHT22;10524;48.132;8.518;2023-11-19T01:21:18;7.30;99.90
20726;DHT22;10524;48.132;8.518;2023-11-19T01:23:45;7.40;99.90
20726;DHT22;10524;48.132;8.518;2023-11-19T01:26:11;7.40;99.90
20726;DHT22;10524;48.132;8.518;2023-11-19T01:28:38;7.50;99.90
20726;DHT22;10524;48.132;8.518;2023-11-19T01:31:15;7.50;99.90
20726;DHT22;10524;48.132;8.518;2023-11-19T01:33:40;7.60;99.90
20726;DHT22;10524;48.132;8.518;2023-11-19T01:36:07;7.60;99.90
20726;DHT22;10524;48.132;8.518;2023-11-19T01:38:34;7.70;99.90
20726;DHT22;10524;48.132;8.518;2023-11-19T01:41:00;7.80;99.90
20726;DHT22;10524;48.132;8.518;2023-11-19T01:43:36;7.80;99.90
20726;DHT22;10524;48.132;8.518;2023-11-19T01:46:02;7.90;99.90
20726;DHT22;10524;48.132;8.518;2023-11-19T01:48:29;7.90;99.90
20726;DHT22;10524;48.132;8.518;2023-11-19T01:50:56;8.00;99.90
20726;DHT22;10524;48.132;8.518;2023-11-19T01:53:22;8.00;99.90
20726;DHT22;10524;48.132;8.518;2023-11-19T01:55:49;8.00;99.90
20726;DHT22;10524;48.132;8.518;2023-11-19T01:58:15;8.00;99.90
20726;DHT22;10524;48.132;8.518;2023-11-19T02:00:44;8.10;99.90
20726;DHT22;10524;48.132;8.518;2023-11-19T02:03:10;8.10;99.90
20726;DHT22;10524;48.132;8.518;2023-11-19T02:05:37;8.10;99.90
20726;DHT22;10524;48.132;8.518;2023-11-19T02:08:04;8.10;99.90
20726;DHT22;10524;48.132;8.518;2023-11-19T02:10:30;8.10;99.90
20726;DHT22;10524;48.132;8.518;2023-11-19T02:12:58;8.10;99.90
20726;DHT22;10524;48.132;8.518;2023-11-19T02:15:24;8.10;99.90
20726;DHT22;10524;48.132;8.518;2023-11-19T02:17:50;8.10;99.90
20726;DHT22;10524;48.132;8.518;2023-11-19T02:20:17;8.10;99.90
20726;DHT22;10524;48.132;8.518;2023-11-19T02:22:48;8.20;99.90
20726;DHT22;10524;48.132;8.518;2023-11-19T02:25:32;8.20;99.90
20726;DHT22;10524;48.132;8.518;2023-11-19T02:28:02;8.20;99.90
20726;DHT22;10524;48.132;8.518;2023-11-19T02:30:29;8.30;99.90
20726;DHT22;10524;48.132;8.518;2023-11-19T02:32:59;8.30;99.90
20726;DHT22;10524;48.132;8.518;2023-11-19T02:35:28;8.40;99.90
20726;DHT22;10524;48.132;8.518;2023-11-19T02:37:58;8.40;99.90
20726;DHT22;10524;48.132;8.518;2023-11-19T02:40:25;8.40;99.90
20726;DHT22;10524;48.132;8.518;2023-11-19T02:42:51;8.40;99.90
20726;DHT22;10524;48.132;8.518;2023-11-19T02:45:18;8.40;99.90
20726;DHT22;10524;48.132;8.518;2023-11-19T02:47:44;8.50;99.90
20726;DHT22;10524;48.132;8.518;2023-11-19T02:50:10;8.40;99.90
20726;DHT22;10524;48.132;8.518;2023-11-19T02:52:44;8.50;99.90
20726;DHT22;10524;48.132;8.518;2023-11-19T02:55:11;8.60;99.90
20726;DHT22;10524;48.132;8.518;2023-11-19T02:57:41;8.70;99.90
20726;DHT22;10524;48.132;8.518;2023-11-19T03:00:17;8.70;99.90
20726;DHT22;10524;48.132;8.518;2023-11-19T03:02:44;8.80;99.90
20726;DHT22;10524;48.132;8.518;2023-11-19T03:05:19;8.80;99.90
20726;DHT22;10524;48.132;8.518;2023-11-19T03:07:45;8.90;99.90
20726;DHT22;10524;48.132;8.518;2023-11-19T03:10:12;8.90;99.90
20726;DHT22;10524;48.132;8.518;2023-11-19T03:12:40;8.90;99.90
20726;DHT22;10524;48.132;8.518;2023-11-19T03:15:07;9.00;99.90
20726;DHT22;10524;48.132;8.518;2023-11-19T03:17:36;8.90;99.90
20726;DHT22;10524;48.132;8.518;2023-11-19T03:20:05;8.90;99.90
20726;DHT22;10524;48.132;8.518;2023-11-19T03:22:32;9.00;99.90
20726;DHT22;10524;48.132;8.518;2023-11-19T03:25:00;9.00;99.90
20726;DHT22;10524;48.132;8.518;2023-11-19T03:27:25;9.10;99.90
20726;DHT22;10524;48.132;8.518;2023-11-19T03:29:51;9.10;99.90
20726;DHT22;10524;48.132;8.518;2023-11-19T03:32:17;9.10;99.90
20726;DHT22;10524;48.132;8.518;2023-11-19T03:34:42;9.00;99.90
20726;DHT22;10524;48.132;8.518;2023-11-19T03:37:08;9.10;99.90
20726;DHT22;10524;48.132;8.518;2023-11-19T03:39:34;9.10;99.90
20726;DHT22;10524;48.132;8.518;2023-11-19T03:42:00;9.10;99.90
20726;DHT22;10524;48.132;8.518;2023-11-19T03:44:27;9.10;99.90
20726;DHT22;10524;48.132;8.518;2023-11-19T03:46:52;9.10;99.90
20726;DHT22;10524;48.132;8.518;2023-11-19T03:49:18;9.10;99.90
20726;DHT22;10524;48.132;8.518;2023-11-19T03:51:44;9.10;99.90
20726;DHT22;10524;48.132;8.518;2023-11-19T03:54:10;9.10;99.90
20726;DHT22;10524;48.132;8.518;2023-11-19T03:56:37;9.10;99.90
20726;DHT22;10524;48.132;8.518;2023-11-19T03:59:03;9.10;99.90
20726;DHT22;10524;48.132;8.518;2023-11-19T04:01:29;9.10;99.90
20726;DHT22;10524;48.132;8.518;2023-11-19T04:03:54;9.10;99.90
20726;DHT22;10524;48.132;8.518;2023-11-19T04:06:21;9.10;99.90
20726;DHT22;10524;48.132;8.518;2023-11-19T04:08:50;9.00;99.90
20726;DHT22;10524;48.132;8.518;2023-11-19T04:11:17;9.10;99.90
20726;DHT22;10524;48.132;8.518;2023-11-19T04:13:43;9.10;99.90
20726;DHT22;10524;48.132;8.518;2023-11-19T04:16:09;9.10;99.90
20726;DHT22;10524;48.132;8.518;2023-11-19T04:18:35;9.10;99.90
20726;DHT22;10524;48.132;8.518;2023-11-19T04:21:01;9.10;99.90
20726;DHT22;10524;48.132;8.518;2023-11-19T04:23:27;9.10;99.90
20726;DHT22;10524;48.132;8.518;2023-11-19T04:25:52;9.10;99.90
20726;DHT22;10524;48.132;8.518;2023-11-19T04:28:19;9.00;99.90
20726;DHT22;10524;48.132;8.518;2023-11-19T04:30:45;9.00;99.90
20726;DHT22;10524;48.132;8.518;2023-11-19T04:33:11;9.10;99.90
20726;DHT22;10524;48.132;8.518;2023-11-19T04:35:36;9.10;99.90
20726;DHT22;10524;48.132;8.518;2023-11-19T04:38:02;9.00;99.90
20726;DHT22;10524;48.132;8.518;2023-11-19T04:40:28;9.00;99.90
20726;DHT22;10524;48.132;8.518;2023-11-19T04:42:54;8.90;99.90
20726;DHT22;10524;48.132;8.518;2023-11-19T04:45:19;8.90;99.90
20726;DHT22;10524;48.132;8.518;2023-11-19T04:47:45;8.90;99.90
20726;DHT22;10524;48.132;8.518;2023-11-19T04:50:11;9.00;99.90
20726;DHT22;10524;48.132;8.518;2023-11-19T04:52:40;9.00;99.90
20726;DHT22;10524;48.132;8.518;2023-11-19T04:55:06;9.00;99.90
20726;DHT22;10524;48.132;8.518;2023-11-19T04:57:32;9.00;99.90
20726;DHT22;10524;48.132;8.518;2023-11-19T04:59:58;9.00;99.90
20726;DHT22;10524;48.132;8.518;2023-11-19T05:02:24;9.00;99.90
20726;DHT22;10524;48.132;8.518;2023-11-19T05:04:50;9.10;99.90
20726;DHT22;10524;48.132;8.518;2023-11-19T05:07:16;9.10;99.90
20726;DHT22;10524;48.132;8.518;2023-11-19T05:09:41;9.20;99.90
20726;DHT22;10524;48.132;8.518;2023-11-19T05:12:08;9.10;99.90
20726;DHT22;10524;48.132;8.518;2023-11-19T05:14:37;9.10;99.90
20726;DHT22;10524;48.132;8.518;2023-11-19T05:17:03;9.10;99.90
20726;DHT22;10524;48.132;8.518;2023-11-19T05:19:29;9.10;99.90
20726;DHT22;10524;48.132;8.518;2023-11-19T05:21:55;9.10;99.90
20726;DHT22;10524;48.132;8.518;2023-11-19T05:24:21;9.20;99.90
20726;DHT22;10524;48.132;8.518;2023-11-19T05:26:46;9.10;99.90
20726;DHT22;10524;48.132;8.518;2023-11-19T05:29:12;9.20;99.90
20726;DHT22;10524;48.132;8.518;2023-11-19T05:31:38;9.20;99.90
20726;DHT22;10524;48.132;8.518;2023-11-19T05:34:04;9.20;99.90
20726;DHT22;10524;48.132;8.518;2023-11-19T05:36:30;9.20;99.90
20726;DHT22;10524;48.132;8.518;2023-11-19T05:38:56;9.20;99.90
20726;DHT22;10524;48.132;8.518;2023-11-19T05:41:21;9.20;99.90
20726;DHT22;10524;48.132;8.518;2023-11-19T05:43:47;9.20;99.90
20726;DHT22;10524;48.132;8.518;2023-11-19T05:46:13;9.20;99.90
20726;DHT22;10524;48.132;8.518;2023-11-19T05:48:38;9.20;99.90
20726;DHT22;10524;48.132;8.518;2023-11-19T05:51:05;9.30;99.90
20726;DHT22;10524;48.132;8.518;2023-11-19T05:53:31;9.20;99.90
20726;DHT22;10524;48.132;8.518;2023-11-19T05:55:57;9.30;99.90
20726;DHT22;10524;48.132;8.518;2023-11-19T05:58:26;9.30;99.90
20726;DHT22;10524;48.132;8.518;2023-11-19T06:00:57;9.20;99.90
20726;DHT22;10524;48.132;8.518;2023-11-19T06:03:23;9.30;99.90
20726;DHT22;10524;48.132;8.518;2023-11-19T06:05:49;9.30;99.90
20726;DHT22;10524;48.132;8.518;2023-11-19T06:08:15;9.30;99.90
20726;DHT22;10524;48.132;8.518;2023-11-19T06:10:42;9.40;99.90
20726;DHT22;10524;48.132;8.518;2023-11-19T06:13:09;9.40;99.90
20726;DHT22;10524;48.132;8.518;2023-11-19T06:15:36;9.30;99.90
20726;DHT22;10524;48.132;8.518;2023-11-19T06:18:02;9.30;99.90
20726;DHT22;10524;48.132;8.518;2023-11-19T06:20:29;9.30;99.90
20726;DHT22;10524;48.132;8.518;2023-11-19T06:22:56;9.30;99.90
20726;DHT22;10524;48.132;8.518;2023-11-19T06:25:22;9.30;99.90
20726;DHT22;10524;48.132;8.518;2023-11-19T06:27:52;9.30;99.90
20726;DHT22;10524;48.132;8.518;2023-11-19T06:30:18;9.30;99.90
20726;DHT22;10524;48.132;8.518;2023-11-19T06:32:45;9.30;99.90
20726;DHT22;10524;48.132;8.518;2023-11-19T06:35:10;9.30;99.90
20726;DHT22;10524;48.132;8.518;2023-11-19T06:37:39;9.40;99.90
20726;DHT22;10524;48.132;8.518;2023-11-19T06:40:05;9.30;99.90
20726;DHT22;10524;48.132;8.518;2023-11-19T06:42:31;9.30;99.90
20726;DHT22;10524;48.132;8.518;2023-11-19T06:44:57;9.30;99.90
20726;DHT22;10524;48.132;8.518;2023-11-19T06:47:26;9.40;99.90
20726;DHT22;10524;48.132;8.518;2023-11-19T06:49:53;9.30;99.90
20726;DHT22;10524;48.132;8.518;2023-11-19T06:52:19;9.30;99.90
20726;DHT22;10524;48.132;8.518;2023-11-19T06:54:45;9.30;99.90
20726;DHT22;10524;48.132;8.518;2023-11-19T06:57:13;9.20;99.90
20726;DHT22;10524;48.132;8.518;2023-11-19T06:59:39;9.20;99.90
20726;DHT22;10524;48.132;8.518;2023-11-19T07:02:06;9.20;99.90
20726;DHT22;10524;48.132;8.518;2023-11-19T07:04:32;9.20;99.90
20726;DHT22;10524;48.132;8.518;2023-11-19T07:06:59;9.20;99.90
20726;DHT22;10524;48.132;8.518;2023-11-19T07:09:25;9.20;99.90
20726;DHT22;10524;48.132;8.518;2023-11-19T07:11:51;9.20;99.90
20726;DHT22;10524;48.132;8.518;2023-11-19T07:14:18;9.20;99.90
20726;DHT22;10524;48.132;8.518;2023-11-19T07:16:44;9.30;99.90
20726;DHT22;10524;48.132;8.518;2023-11-19T07:19:11;9.30;99.90
20726;DHT22;10524;48.132;8.518;2023-11-19T07:21:40;9.30;99.90
20726;DHT22;10524;48.132;8.518;2023-11-19T07:24:10;9.30;99.90
20726;DHT22;10524;48.132;8.518;2023-11-19T07:26:42;9.30;99.90
20726;DHT22;10524;48.132;8.518;2023-11-19T07:29:09;9.30;99.90
20726;DHT22;10524;48.132;8.518;2023-11-19T07:31:35;9.30;99.90
20726;DHT22;10524;48.132;8.518;2023-11-19T07:34:00;9.40;99.90
20726;DHT22;10524;48.132;8.518;2023-11-19T07:36:26;9.50;99.90
20726;DHT22;10524;48.132;8.518;2023-11-19T07:38:52;9.50;99.90
20726;DHT22;10524;48.132;8.518;2023-11-19T07:41:18;9.60;99.90
20726;DHT22;10524;48.132;8.518;2023-11-19T07:43:45;9.70;99.90
20726;DHT22;10524;48.132;8.518;2023-11-19T07:46:16;9.70;99.90
20726;DHT22;10524;48.132;8.518;2023-11-19T07:48:41;9.70;99.90
20726;DHT22;10524;48.132;8.518;2023-11-19T07:51:08;9.70;99.90
20726;DHT22;10524;48.132;8.518;2023-11-19T07:53:34;9.70;99.90
20726;DHT22;10524;48.132;8.518;2023-11-19T07:56:00;9.80;99.90
20726;DHT22;10524;48.132;8.518;2023-11-19T07:58:26;9.80;99.90
20726;DHT22;10524;48.132;8.518;2023-11-19T08:00:52;9.80;99.90
20726;DHT22;10524;48.132;8.518;2023-11-19T08:03:18;9.80;99.90
20726;DHT22;10524;48.132;8.518;2023-11-19T08:05:45;10.00;99.90
20726;DHT22;10524;48.132;8.518;2023-11-19T08:08:12;10.10;99.90
20726;DHT22;10524;48.132;8.518;2023-11-19T08:10:38;10.20;99.90
20726;DHT22;10524;48.132;8.518;2023-11-19T08:13:04;10.30;99.90
20726;DHT22;10524;48.132;8.518;2023-11-19T08:15:30;10.40;99.90
20726;DHT22;10524;48.132;8.518;2023-11-19T08:17:55;10.50;99.90
20726;DHT22;10524;48.132;8.518;2023-11-19T08:20:22;10.70;99.90
20726;DHT22;10524;48.132;8.518;2023-11-19T08:22:47;10.80;99.90
20726;DHT22;10524;48.132;8.518;2023-11-19T08:25:13;10.70;99.90
20726;DHT22;10524;48.132;8.518;2023-11-19T08:27:39;10.70;99.90
20726;DHT22;10524;48.132;8.518;2023-11-19T08:30:05;10.80;99.90
20726;DHT22;10524;48.132;8.518;2023-11-19T08:32:32;10.90;99.90
20726;DHT22;10524;48.132;8.518;2023-11-19T08:34:58;10.90;99.90
20726;DHT22;10524;48.132;8.518;2023-11-19T08:37:23;11.10;99.90
20726;DHT22;10524;48.132;8.518;2023-11-19T08:39:50;11.20;99.90
20726;DHT22;10524;48.132;8.518;2023-11-19T08:42:16;11.20;99.90
20726;DHT22;10524;48.132;8.518;2023-11-19T08:44:43;11.20;99.90
20726;DHT22;10524;48.132;8.518;2023-11-19T08:47:15;11.30;99.90
20726;DHT22;10524;48.132;8.518;2023-11-19T08:49:41;11.50;99.90
20726;DHT22;10524;48.132;8.518;2023-11-19T08:52:07;11.50;99.90
20726;DHT22;10524;48.132;8.518;2023-11-19T08:54:33;11.60;99.90
20726;DHT22;10524;48.132;8.518;2023-11-19T08:56:59;11.80;99.90
20726;DHT22;10524;48.132;8.518;2023-11-19T08:59:25;11.90;99.90
20726;DHT22;10524;48.132;8.518;2023-11-19T09:01:51;12.10;99.90
20726;DHT22;10524;48.132;8.518;2023-11-19T09:04:17;12.40;99.90
20726;DHT22;10524;48.132;8.518;2023-11-19T09:06:43;12.50;99.90
20726;DHT22;10524;48.132;8.518;2023-11-19T09:09:09;12.60;99.90
20726;DHT22;10524;48.132;8.518;2023-11-19T09:11:35;12.80;99.90
20726;DHT22;10524;48.132;8.518;2023-11-19T09:14:02;13.50;99.90
20726;DHT22;10524;48.132;8.518;2023-11-19T09:16:28;14.60;99.90
20726;DHT22;10524;48.132;8.518;2023-11-19T09:18:53;14.50;99.90
20726;DHT22;10524;48.132;8.518;2023-11-19T09:21:19;16.60;99.90
20726;DHT22;10524;48.132;8.518;2023-11-19T09:23:45;16.70;99.90
20726;DHT22;10524;48.132;8.518;2023-11-19T09:26:13;16.30;99.90
20726;DHT22;10524;48.132;8.518;2023-11-19T09:28:39;15.50;99.90
20726;DHT22;10524;48.132;8.518;2023-11-19T09:31:18;15.40;99.90
20726;DHT22;10524;48.132;8.518;2023-11-19T09:33:44;16.00;99.90
20726;DHT22;10524;48.132;8.518;2023-11-19T09:36:14;16.70;99.90
20726;DHT22;10524;48.132;8.518;2023-11-19T09:38:40;17.30;99.90
20726;DHT22;10524;48.132;8.518;2023-11-19T09:41:06;18.20;99.90
20726;DHT22;10524;48.132;8.518;2023-11-19T09:43:37;18.90;99.90
20726;DHT22;10524;48.132;8.518;2023-11-19T09:46:06;17.20;99.90
20726;DHT22;10524;48.132;8.518;2023-11-19T09:48:35;17.70;99.90
20726;DHT22;10524;48.132;8.518;2023-11-19T09:51:03;18.50;99.90
20726;DHT22;10524;48.132;8.518;2023-11-19T09:53:30;18.20;99.90
20726;DHT22;10524;48.132;8.518;2023-11-19T09:55:56;18.50;99.90
20726;DHT22;10524;48.132;8.518;2023-11-19T09:58:22;19.50;99.90
20726;DHT22;10524;48.132;8.518;2023-11-19T10:00:49;19.30;99.90
20726;DHT22;10524;48.132;8.518;2023-11-19T10:03:15;18.50;99.90
20726;DHT22;10524;48.132;8.518;2023-11-19T10:05:41;17.80;99.90
20726;DHT22;10524;48.132;8.518;2023-11-19T10:08:07;18.10;99.90
20726;DHT22;10524;48.132;8.518;2023-11-19T10:10:37;19.10;99.90
20726;DHT22;10524;48.132;8.518;2023-11-19T10:13:03;19.80;99.90
20726;DHT22;10524;48.132;8.518;2023-11-19T10:15:36;19.90;99.90
20726;DHT22;10524;48.132;8.518;2023-11-19T10:18:03;21.20;99.90
20726;DHT22;10524;48.132;8.518;2023-11-19T10:20:37;23.00;99.90
20726;DHT22;10524;48.132;8.518;2023-11-19T10:23:03;21.90;99.90
20726;DHT22;10524;48.132;8.518;2023-11-19T10:25:29;20.30;99.90
20726;DHT22;10524;48.132;8.518;2023-11-19T10:27:58;18.20;99.90
20726;DHT22;10524;48.132;8.518;2023-11-19T10:30:26;16.60;99.90
20726;DHT22;10524;48.132;8.518;2023-11-19T10:33:04;17.10;99.90
20726;DHT22;10524;48.132;8.518;2023-11-19T10:35:34;16.30;99.90
20726;DHT22;10524;48.132;8.518;2023-11-19T10:38:01;15.40;99.90
20726;DHT22;10524;48.132;8.518;2023-11-19T10:40:40;14.90;99.90
20726;DHT22;10524;48.132;8.518;2023-11-19T10:43:09;14.40;99.90
20726;DHT22;10524;48.132;8.518;2023-11-19T10:45:36;15.70;99.90
20726;DHT22;10524;48.132;8.518;2023-11-19T10:48:05;18.40;99.90
20726;DHT22;10524;48.132;8.518;2023-11-19T10:50:40;21.40;99.90
20726;DHT22;10524;48.132;8.518;2023-11-19T10:53:09;22.50;99.90
20726;DHT22;10524;48.132;8.518;2023-11-19T10:55:36;21.90;99.90
20726;DHT22;10524;48.132;8.518;2023-11-19T10:58:07;22.00;99.90
20726;DHT22;10524;48.132;8.518;2023-11-19T11:00:57;21.30;99.90
20726;DHT22;10524;48.132;8.518;2023-11-19T11:03:31;19.40;99.90
20726;DHT22;10524;48.132;8.518;2023-11-19T11:06:03;19.60;99.90
20726;DHT22;10524;48.132;8.518;2023-11-19T11:08:30;17.90;99.90
20726;DHT22;10524;48.132;8.518;2023-11-19T11:10:56;16.90;99.90
20726;DHT22;10524;48.132;8.518;2023-11-19T11:13:24;15.90;99.90
20726;DHT22;10524;48.132;8.518;2023-11-19T11:15:51;14.80;99.90
20726;DHT22;10524;48.132;8.518;2023-11-19T11:18:17;14.50;99.90
20726;DHT22;10524;48.132;8.518;2023-11-19T11:20:47;18.10;99.90
20726;DHT22;10524;48.132;8.518;2023-11-19T11:28:37;20.50;99.90
20726;DHT22;10524;48.132;8.518;2023-11-19T11:39:34;21.00;99.90
20726;DHT22;10524;48.132;8.518;2023-11-19T11:45:18;21.30;99.90
20726;DHT22;10524;48.132;8.518;2023-11-19T11:50:20;22.90;99.90
20726;DHT22;10524;48.132;8.518;2023-11-19T11:55:36;18.90;99.90
20726;DHT22;10524;48.132;8.518;2023-11-19T11:58:03;18.40;99.90
20726;DHT22;10524;48.132;8.518;2023-11-19T12:00:30;17.50;99.90
20726;DHT22;10524;48.132;8.518;2023-11-19T12:02:57;18.40;99.90
20726;DHT22;10524;48.132;8.518;2023-11-19T12:05:24;20.50;99.90
20726;DHT22;10524;48.132;8.518;2023-11-19T12:08:00;20.80;99.90
20726;DHT22;10524;48.132;8.518;2023-11-19T12:10:30;20.40;99.90
20726;DHT22;10524;48.132;8.518;2023-11-19T12:13:01;21.50;99.90
20726;DHT22;10524;48.132;8.518;2023-11-19T12:15:27;21.50;99.90
20726;DHT22;10524;48.132;8.518;2023-11-19T12:17:56;21.00;99.90
20726;DHT22;10524;48.132;8.518;2023-11-19T12:20:26;21.20;99.90
20726;DHT22;10524;48.132;8.518;2023-11-19T12:22:53;20.80;99.90
20726;DHT22;10524;48.132;8.518;2023-11-19T12:25:19;20.90;99.90
20726;DHT22;10524;48.132;8.518;2023-11-19T12:27:47;21.10;99.90
20726;DHT22;10524;48.132;8.518;2023-11-19T12:30:23;21.70;99.90
20726;DHT22;10524;48.132;8.518;2023-11-19T12:32:53;21.00;99.90
20726;DHT22;10524;48.132;8.518;2023-11-19T12:35:19;21.10;99.90
20726;DHT22;10524;48.132;8.518;2023-11-19T12:37:49;18.70;99.90
20726;DHT22;10524;48.132;8.518;2023-11-19T12:40:19;16.20;99.90
20726;DHT22;10524;48.132;8.518;2023-11-19T12:42:46;14.80;99.90
20726;DHT22;10524;48.132;8.518;2023-11-19T12:45:12;14.10;99.90
20726;DHT22;10524;48.132;8.518;2023-11-19T12:47:45;13.60;99.90
20726;DHT22;10524;48.132;8.518;2023-11-19T12:50:14;13.40;99.90
20726;DHT22;10524;48.132;8.518;2023-11-19T12:52:40;13.20;99.90
20726;DHT22;10524;48.132;8.518;2023-11-19T12:55:24;13.10;99.90
20726;DHT22;10524;48.132;8.518;2023-11-19T12:57:51;13.10;99.90
20726;DHT22;10524;48.132;8.518;2023-11-19T13:00:21;13.00;99.90
20726;DHT22;10524;48.132;8.518;2023-11-19T13:02:49;12.90;99.90
20726;DHT22;10524;48.132;8.518;2023-11-19T13:05:33;12.80;99.90
20726;DHT22;10524;48.132;8.518;2023-11-19T13:08:09;12.70;99.90
20726;DHT22;10524;48.132;8.518;2023-11-19T13:10:53;12.60;99.90
20726;DHT22;10524;48.132;8.518;2023-11-19T13:13:19;12.50;99.90
20726;DHT22;10524;48.132;8.518;2023-11-19T13:15:45;12.50;99.90
20726;DHT22;10524;48.132;8.518;2023-11-19T13:18:11;12.40;99.90
20726;DHT22;10524;48.132;8.518;2023-11-19T13:20:38;12.40;99.90
20726;DHT22;10524;48.132;8.518;2023-11-19T13:23:05;12.40;99.90
20726;DHT22;10524;48.132;8.518;2023-11-19T13:25:31;12.40;99.90
20726;DHT22;10524;48.132;8.518;2023-11-19T13:28:00;12.40;99.90
20726;DHT22;10524;48.132;8.518;2023-11-19T13:30:26;12.40;99.90
20726;DHT22;10524;48.132;8.518;2023-11-19T13:32:52;12.40;99.90
20726;DHT22;10524;48.132;8.518;2023-11-19T13:35:20;12.40;99.90
20726;DHT22;10524;48.132;8.518;2023-11-19T13:37:47;12.30;99.90
20726;DHT22;10524;48.132;8.518;2023-11-19T13:40:13;12.40;99.90
20726;DHT22;10524;48.132;8.518;2023-11-19T13:42:40;12.30;99.90
20726;DHT22;10524;48.132;8.518;2023-11-19T13:45:15;12.20;99.90
20726;DHT22;10524;48.132;8.518;2023-11-19T13:47:44;12.20;99.90
20726;DHT22;10524;48.132;8.518;2023-11-19T13:50:12;12.10;99.90
20726;DHT22;10524;48.132;8.518;2023-11-19T13:52:40;12.00;99.90
20726;DHT22;10524;48.132;8.518;2023-11-19T13:55:08;12.00;99.90
20726;DHT22;10524;48.132;8.518;2023-11-19T13:57:35;12.00;99.90
20726;DHT22;10524;48.132;8.518;2023-11-19T14:00:02;12.00;99.90
20726;DHT22;10524;48.132;8.518;2023-11-19T14:02:34;11.90;99.90
20726;DHT22;10524;48.132;8.518;2023-11-19T14:05:00;11.90;99.90
20726;DHT22;10524;48.132;8.518;2023-11-19T14:07:26;12.00;99.90
20726;DHT22;10524;48.132;8.518;2023-11-19T14:09:52;12.00;99.90
20726;DHT22;10524;48.132;8.518;2023-11-19T14:12:18;11.90;99.90
20726;DHT22;10524;48.132;8.518;2023-11-19T14:14:44;11.90;99.90
20726;DHT22;10524;48.132;8.518;2023-11-19T14:17:09;11.90;99.90
20726;DHT22;10524;48.132;8.518;2023-11-19T14:19:37;11.70;99.90
20726;DHT22;10524;48.132;8.518;2023-11-19T14:22:05;11.70;99.90
20726;DHT22;10524;48.132;8.518;2023-11-19T14:24:31;11.80;99.90
20726;DHT22;10524;48.132;8.518;2023-11-19T14:26:57;11.80;99.90
20726;DHT22;10524;48.132;8.518;2023-11-19T14:29:24;11.80;99.90
20726;DHT22;10524;48.132;8.518;2023-11-19T14:31:56;11.80;99.90
20726;DHT22;10524;48.132;8.518;2023-11-19T14:34:22;11.80;99.90
20726;DHT22;10524;48.132;8.518;2023-11-19T14:36:48;11.70;99.90
20726;DHT22;10524;48.132;8.518;2023-11-19T14:39:14;11.70;99.90
20726;DHT22;10524;48.132;8.518;2023-11-19T14:41:40;11.50;99.90
20726;DHT22;10524;48.132;8.518;2023-11-19T14:44:07;11.40;99.90
20726;DHT22;10524;48.132;8.518;2023-11-19T14:46:35;11.30;99.90
20726;DHT22;10524;48.132;8.518;2023-11-19T14:49:01;11.10;99.90
20726;DHT22;10524;48.132;8.518;2023-11-19T14:51:27;11.00;99.90
20726;DHT22;10524;48.132;8.518;2023-11-19T14:53:52;11.10;99.90
20726;DHT22;10524;48.132;8.518;2023-11-19T14:56:18;11.00;99.90
20726;DHT22;10524;48.132;8.518;2023-11-19T14:58:44;10.90;99.90
20726;DHT22;10524;48.132;8.518;2023-11-19T15:01:13;10.90;99.90
20726;DHT22;10524;48.132;8.518;2023-11-19T15:03:40;10.80;99.90
20726;DHT22;10524;48.132;8.518;2023-11-19T15:06:06;10.70;99.90
20726;DHT22;10524;48.132;8.518;2023-11-19T15:08:34;10.60;99.90
20726;DHT22;10524;48.132;8.518;2023-11-19T15:11:00;10.50;99.90
20726;DHT22;10524;48.132;8.518;2023-11-19T15:13:27;10.50;99.90
20726;DHT22;10524;48.132;8.518;2023-11-19T15:15:53;10.30;99.90
20726;DHT22;10524;48.132;8.518;2023-11-19T15:18:21;10.30;99.90
20726;DHT22;10524;48.132;8.518;2023-11-19T15:20:46;10.30;99.90
20726;DHT22;10524;48.132;8.518;2023-11-19T15:23:16;10.30;99.90
20726;DHT22;10524;48.132;8.518;2023-11-19T15:25:42;10.20;99.90
20726;DHT22;10524;48.132;8.518;2023-11-19T15:28:08;10.00;99.90
20726;DHT22;10524;48.132;8.518;2023-11-19T15:30:34;9.90;99.90
20726;DHT22;10524;48.132;8.518;2023-11-19T15:32:59;9.70;99.90
20726;DHT22;10524;48.132;8.518;2023-11-19T15:35:25;9.50;99.90
20726;DHT22;10524;48.132;8.518;2023-11-19T15:37:51;9.50;99.90
20726;DHT22;10524;48.132;8.518;2023-11-19T15:40:18;9.40;99.90
20726;DHT22;10524;48.132;8.518;2023-11-19T15:42:44;9.20;99.90
20726;DHT22;10524;48.132;8.518;2023-11-19T15:45:11;9.00;99.90
20726;DHT22;10524;48.132;8.518;2023-11-19T15:47:37;8.80;99.90
20726;DHT22;10524;48.132;8.518;2023-11-19T15:50:05;8.50;99.90
20726;DHT22;10524;48.132;8.518;2023-11-19T15:52:31;8.30;99.90
20726;DHT22;10524;48.132;8.518;2023-11-19T15:54:57;8.40;99.90
20726;DHT22;10524;48.132;8.518;2023-11-19T15:57:23;8.40;99.90
20726;DHT22;10524;48.132;8.518;2023-11-19T15:59:50;8.10;99.90
20726;DHT22;10524;48.132;8.518;2023-11-19T16:02:17;7.90;99.90